sensor_id;sensor_type;location;lat;lon;timestamp;pressure;altitude;pressure_sealevel;temperature;humidity
70229;BME280;57617;51.988;5.854;2022-11-20T00:01:34;100943.34;;;2.18;61.20
70229;BME280;57617;51.988;5.854;2022-11-20T00:03:59;100933.63;;;2.17;61.07
70229;BME280;57617;51.988;5.854;2022-11-20T00:06:26;100935.31;;;2.18;61.68
70229;BME280;57617;51.988;5.854;2022-11-20T00:08:54;100932.13;;;2.15;61.47
70229;BME280;57617;51.988;5.854;2022-11-20T00:11:22;100927.16;;;2.12;60.87
70229;BME280;57617;51.988;5.854;2022-11-20T00:13:49;100890.75;;;1.88;61.55
70229;BME280;57617;51.988;5.854;2022-11-20T00:16:18;100927.72;;;2.07;61.48
70229;BME280;57617;51.988;5.854;2022-11-20T00:18:44;100916.19;;;2.07;61.46
70229;BME280;57617;51.988;5.854;2022-11-20T00:21:12;100910.81;;;2.07;61.42
70229;BME280;57617;51.988;5.854;2022-11-20T00:23:38;100907.69;;;2.03;61.67
70229;BME280;57617;51.988;5.854;2022-11-20T00:26:05;100900.09;;;2.07;60.98
70229;BME280;57617;51.988;5.854;2022-11-20T00:28:30;100898.44;;;2.06;61.19
70229;BME280;57617;51.988;5.854;2022-11-20T00:31:06;100897.59;;;2.05;61.68
70229;BME280;57617;51.988;5.854;2022-11-20T00:33:32;100905.81;;;2.04;61.33
70229;BME280;57617;51.988;5.854;2022-11-20T00:36:02;100900.66;;;2.02;61.91
70229;BME280;57617;51.988;5.854;2022-11-20T00:38:29;100905.53;;;1.99;61.08
70229;BME280;57617;51.988;5.854;2022-11-20T00:40:56;100911.91;;;1.98;61.00
70229;BME280;57617;51.988;5.854;2022-11-20T00:43:21;100913.09;;;1.95;61.47
70229;BME280;57617;51.988;5.854;2022-11-20T00:45:47;100910.72;;;2.00;61.69
70229;BME280;57617;51.988;5.854;2022-11-20T00:48:12;100912.81;;;1.90;61.52
70229;BME280;57617;51.988;5.854;2022-11-20T00:50:37;100903.47;;;1.86;61.66
70229;BME280;57617;51.988;5.854;2022-11-20T00:53:02;100907.56;;;1.82;61.71
70229;BME280;57617;51.988;5.854;2022-11-20T00:55:28;100905.41;;;1.78;61.57
70229;BME280;57617;51.988;5.854;2022-11-20T00:57:53;100909.09;;;1.77;61.68
70229;BME280;57617;51.988;5.854;2022-11-20T01:00:18;100908.94;;;1.78;62.11
70229;BME280;57617;51.988;5.854;2022-11-20T01:02:43;100910.94;;;1.76;61.99
70229;BME280;57617;51.988;5.854;2022-11-20T01:05:09;100913.81;;;1.75;61.17
70229;BME280;57617;51.988;5.854;2022-11-20T01:07:34;100918.03;;;1.69;61.70
70229;BME280;57617;51.988;5.854;2022-11-20T01:09:59;100911.75;;;1.62;61.33
70229;BME280;57617;51.988;5.854;2022-11-20T01:12:24;100906.47;;;1.54;61.20
70229;BME280;57617;51.988;5.854;2022-11-20T01:14:50;100855.91;;;1.22;61.34
70229;BME280;57617;51.988;5.854;2022-11-20T01:17:15;100901.84;;;1.48;61.42
70229;BME280;57617;51.988;5.854;2022-11-20T01:19:40;100897.03;;;1.44;61.78
70229;BME280;57617;51.988;5.854;2022-11-20T01:22:05;100889.19;;;1.42;62.09
70229;BME280;57617;51.988;5.854;2022-11-20T01:24:31;100881.50;;;1.39;62.21
70229;BME280;57617;51.988;5.854;2022-11-20T01:26:56;100875.06;;;1.34;61.77
70229;BME280;57617;51.988;5.854;2022-11-20T01:29:23;100882.06;;;1.35;61.66
70229;BME280;57617;51.988;5.854;2022-11-20T01:31:49;100883.88;;;1.34;62.09
70229;BME280;57617;51.988;5.854;2022-11-20T01:34:19;100883.53;;;1.37;62.08
70229;BME280;57617;51.988;5.854;2022-11-20T01:36:46;100870.69;;;1.33;62.04
70229;BME280;57617;51.988;5.854;2022-11-20T01:39:17;100856.22;;;1.27;62.13
70229;BME280;57617;51.988;5.854;2022-11-20T01:41:43;100873.56;;;1.31;62.25
70229;BME280;57617;51.988;5.854;2022-11-20T01:44:56;100874.22;;;1.33;63.03
70229;BME280;57617;51.988;5.854;2022-11-20T01:47:27;100871.81;;;1.38;62.12
70229;BME280;57617;51.988;5.854;2022-11-20T01:49:58;100861.47;;;1.35;62.44
70229;BME280;57617;51.988;5.854;2022-11-20T01:52:30;100864.34;;;1.34;62.63
70229;BME280;57617;51.988;5.854;2022-11-20T01:55:04;100877.06;;;1.32;62.17
70229;BME280;57617;51.988;5.854;2022-11-20T01:57:31;100865.88;;;1.28;62.08
70229;BME280;57617;51.988;5.854;2022-11-20T02:00:10;100874.56;;;1.30;62.36
70229;BME280;57617;51.988;5.854;2022-11-20T02:02:37;100876.59;;;1.28;62.16
70229;BME280;57617;51.988;5.854;2022-11-20T02:05:12;100876.13;;;1.25;62.41
70229;BME280;57617;51.988;5.854;2022-11-20T02:07:40;100874.94;;;1.27;63.03
70229;BME280;57617;51.988;5.854;2022-11-20T02:10:05;100871.25;;;1.28;61.96
70229;BME280;57617;51.988;5.854;2022-11-20T02:12:31;100870.69;;;1.33;62.63
70229;BME280;57617;51.988;5.854;2022-11-20T02:15:15;100870.44;;;1.28;62.06
70229;BME280;57617;51.988;5.854;2022-11-20T02:17:40;100883.97;;;1.26;61.78
70229;BME280;57617;51.988;5.854;2022-11-20T02:20:06;100877.66;;;1.19;62.20
70229;BME280;57617;51.988;5.854;2022-11-20T02:22:38;100879.03;;;1.15;62.70
70229;BME280;57617;51.988;5.854;2022-11-20T02:25:07;100870.06;;;1.08;61.97
70229;BME280;57617;51.988;5.854;2022-11-20T02:27:34;100870.72;;;1.10;62.24
70229;BME280;57617;51.988;5.854;2022-11-20T02:30:02;100867.56;;;1.07;61.50
70229;BME280;57617;51.988;5.854;2022-11-20T02:32:34;100864.25;;;1.05;62.16
70229;BME280;57617;51.988;5.854;2022-11-20T02:37:35;100867.47;;;1.00;62.41
70229;BME280;57617;51.988;5.854;2022-11-20T02:40:02;100869.13;;;1.01;63.30
70229;BME280;57617;51.988;5.854;2022-11-20T02:42:27;100872.81;;;1.00;63.12
70229;BME280;57617;51.988;5.854;2022-11-20T02:44:53;100862.75;;;1.02;62.43
70229;BME280;57617;51.988;5.854;2022-11-20T02:47:18;100856.75;;;1.00;63.10
70229;BME280;57617;51.988;5.854;2022-11-20T02:49:43;100856.94;;;0.99;62.29
70229;BME280;57617;51.988;5.854;2022-11-20T02:52:08;100862.13;;;1.00;62.37
70229;BME280;57617;51.988;5.854;2022-11-20T02:54:34;100855.06;;;0.99;62.74
70229;BME280;57617;51.988;5.854;2022-11-20T02:56:59;100857.09;;;0.97;62.47
70229;BME280;57617;51.988;5.854;2022-11-20T02:59:24;100854.44;;;0.97;62.31
70229;BME280;57617;51.988;5.854;2022-11-20T03:01:49;100856.25;;;0.97;62.15
70229;BME280;57617;51.988;5.854;2022-11-20T03:04:15;100852.78;;;0.96;62.47
70229;BME280;57617;51.988;5.854;2022-11-20T03:06:40;100846.75;;;0.94;62.70
70229;BME280;57617;51.988;5.854;2022-11-20T03:09:05;100849.63;;;0.93;63.42
70229;BME280;57617;51.988;5.854;2022-11-20T03:11:31;100846.97;;;0.93;63.52
70229;BME280;57617;51.988;5.854;2022-11-20T03:13:56;100838.94;;;0.93;62.73
70229;BME280;57617;51.988;5.854;2022-11-20T03:16:22;100837.44;;;0.90;63.28
70229;BME280;57617;51.988;5.854;2022-11-20T03:18:48;100832.44;;;0.87;63.00
70229;BME280;57617;51.988;5.854;2022-11-20T03:21:14;100840.75;;;0.92;63.35
70229;BME280;57617;51.988;5.854;2022-11-20T03:23:40;100840.59;;;0.94;63.24
70229;BME280;57617;51.988;5.854;2022-11-20T03:26:09;100829.22;;;0.92;63.07
70229;BME280;57617;51.988;5.854;2022-11-20T03:28:35;100828.41;;;0.91;63.10
70229;BME280;57617;51.988;5.854;2022-11-20T03:31:12;100812.88;;;0.87;62.79
70229;BME280;57617;51.988;5.854;2022-11-20T03:33:39;100816.78;;;0.84;63.03
70229;BME280;57617;51.988;5.854;2022-11-20T03:36:07;100834.09;;;0.88;62.60
70229;BME280;57617;51.988;5.854;2022-11-20T03:38:33;100810.22;;;0.87;62.41
70229;BME280;57617;51.988;5.854;2022-11-20T03:41:07;100813.38;;;0.90;62.63
70229;BME280;57617;51.988;5.854;2022-11-20T03:43:33;100817.91;;;0.90;63.27
70229;BME280;57617;51.988;5.854;2022-11-20T03:45:59;100827.75;;;0.89;62.87
70229;BME280;57617;51.988;5.854;2022-11-20T03:48:24;100837.44;;;0.90;62.76
70229;BME280;57617;51.988;5.854;2022-11-20T03:50:51;100819.38;;;0.92;63.00
70229;BME280;57617;51.988;5.854;2022-11-20T03:53:17;100816.38;;;0.95;63.67
70229;BME280;57617;51.988;5.854;2022-11-20T03:55:42;100822.34;;;0.97;63.06
70229;BME280;57617;51.988;5.854;2022-11-20T03:58:08;100817.00;;;0.97;63.84
70229;BME280;57617;51.988;5.854;2022-11-20T04:00:33;100815.03;;;0.91;63.42
70229;BME280;57617;51.988;5.854;2022-11-20T04:03:00;100812.28;;;0.99;63.65
70229;BME280;57617;51.988;5.854;2022-11-20T04:05:25;100814.97;;;0.99;63.38
70229;BME280;57617;51.988;5.854;2022-11-20T04:07:50;100815.97;;;0.98;63.61
70229;BME280;57617;51.988;5.854;2022-11-20T04:10:16;100807.78;;;1.00;63.30
70229;BME280;57617;51.988;5.854;2022-11-20T04:12:41;100804.94;;;1.01;63.55
70229;BME280;57617;51.988;5.854;2022-11-20T04:15:06;100800.22;;;1.03;63.87
70229;BME280;57617;51.988;5.854;2022-11-20T04:17:32;100805.75;;;1.02;63.47
70229;BME280;57617;51.988;5.854;2022-11-20T04:19:57;100804.94;;;1.01;64.05
70229;BME280;57617;51.988;5.854;2022-11-20T04:22:22;100798.56;;;1.02;64.12
70229;BME280;57617;51.988;5.854;2022-11-20T04:24:47;100804.22;;;1.07;64.13
70229;BME280;57617;51.988;5.854;2022-11-20T04:27:13;100795.47;;;1.13;63.86
70229;BME280;57617;51.988;5.854;2022-11-20T04:29:38;100806.47;;;1.18;63.54
70229;BME280;57617;51.988;5.854;2022-11-20T04:32:03;100802.97;;;1.18;62.89
70229;BME280;57617;51.988;5.854;2022-11-20T04:34:29;100807.81;;;1.14;63.77
70229;BME280;57617;51.988;5.854;2022-11-20T04:36:54;100807.00;;;1.14;63.49
70229;BME280;57617;51.988;5.854;2022-11-20T04:39:19;100801.50;;;1.15;64.32
70229;BME280;57617;51.988;5.854;2022-11-20T04:41:44;100800.31;;;1.18;63.47
70229;BME280;57617;51.988;5.854;2022-11-20T04:44:10;100803.78;;;1.18;63.59
70229;BME280;57617;51.988;5.854;2022-11-20T04:46:38;100800.94;;;1.20;64.08
70229;BME280;57617;51.988;5.854;2022-11-20T04:49:04;100797.06;;;1.22;63.75
70229;BME280;57617;51.988;5.854;2022-11-20T04:51:29;100800.59;;;1.23;63.99
70229;BME280;57617;51.988;5.854;2022-11-20T04:53:55;100796.91;;;1.24;63.30
70229;BME280;57617;51.988;5.854;2022-11-20T04:56:20;100794.41;;;1.22;63.32
70229;BME280;57617;51.988;5.854;2022-11-20T04:58:46;100787.56;;;1.20;63.94
70229;BME280;57617;51.988;5.854;2022-11-20T05:01:16;100786.19;;;1.24;64.09
70229;BME280;57617;51.988;5.854;2022-11-20T05:03:42;100779.28;;;1.29;64.00
70229;BME280;57617;51.988;5.854;2022-11-20T05:06:09;100774.22;;;1.34;63.94
70229;BME280;57617;51.988;5.854;2022-11-20T05:08:34;100768.13;;;1.40;64.07
70229;BME280;57617;51.988;5.854;2022-11-20T05:11:06;100773.13;;;1.43;63.25
70229;BME280;57617;51.988;5.854;2022-11-20T05:13:31;100769.69;;;1.35;63.94
70229;BME280;57617;51.988;5.854;2022-11-20T05:16:07;100775.31;;;1.25;64.00
70229;BME280;57617;51.988;5.854;2022-11-20T05:18:34;100771.16;;;1.23;63.72
70229;BME280;57617;51.988;5.854;2022-11-20T05:20:59;100767.00;;;1.20;64.05
70229;BME280;57617;51.988;5.854;2022-11-20T05:23:25;100748.69;;;1.09;63.48
70229;BME280;57617;51.988;5.854;2022-11-20T05:25:55;100748.34;;;1.12;64.25
70229;BME280;57617;51.988;5.854;2022-11-20T05:28:21;100752.63;;;1.21;63.93
70229;BME280;57617;51.988;5.854;2022-11-20T05:30:47;100758.59;;;1.23;64.28
70229;BME280;57617;51.988;5.854;2022-11-20T05:33:12;100766.00;;;1.21;64.04
70229;BME280;57617;51.988;5.854;2022-11-20T05:35:37;100768.22;;;1.18;64.00
70229;BME280;57617;51.988;5.854;2022-11-20T05:38:03;100760.06;;;1.11;64.24
70229;BME280;57617;51.988;5.854;2022-11-20T05:40:28;100763.09;;;1.08;64.21
70229;BME280;57617;51.988;5.854;2022-11-20T05:42:53;100745.75;;;1.04;63.87
70229;BME280;57617;51.988;5.854;2022-11-20T05:45:18;100756.56;;;1.11;63.90
70229;BME280;57617;51.988;5.854;2022-11-20T05:47:44;100762.28;;;1.08;63.92
70229;BME280;57617;51.988;5.854;2022-11-20T05:50:09;100763.47;;;1.05;64.06
70229;BME280;57617;51.988;5.854;2022-11-20T05:52:34;100753.13;;;1.02;63.92
70229;BME280;57617;51.988;5.854;2022-11-20T05:54:59;100750.16;;;0.97;64.08
70229;BME280;57617;51.988;5.854;2022-11-20T05:57:25;100750.16;;;0.97;64.10
70229;BME280;57617;51.988;5.854;2022-11-20T05:59:50;100743.16;;;0.96;63.54
70229;BME280;57617;51.988;5.854;2022-11-20T06:02:15;100747.78;;;1.02;63.63
70229;BME280;57617;51.988;5.854;2022-11-20T06:04:41;100753.97;;;1.03;64.71
70229;BME280;57617;51.988;5.854;2022-11-20T06:07:06;100756.81;;;1.01;64.02
70229;BME280;57617;51.988;5.854;2022-11-20T06:09:31;100751.66;;;1.00;64.26
70229;BME280;57617;51.988;5.854;2022-11-20T06:11:57;100765.34;;;0.97;64.48
70229;BME280;57617;51.988;5.854;2022-11-20T06:14:22;100757.13;;;0.84;63.98
70229;BME280;57617;51.988;5.854;2022-11-20T06:16:48;100778.44;;;0.92;64.26
70229;BME280;57617;51.988;5.854;2022-11-20T06:19:13;100781.94;;;0.92;64.35
70229;BME280;57617;51.988;5.854;2022-11-20T06:21:38;100780.94;;;0.93;64.64
70229;BME280;57617;51.988;5.854;2022-11-20T06:24:04;100778.44;;;0.92;63.64
70229;BME280;57617;51.988;5.854;2022-11-20T06:26:30;100774.09;;;0.91;64.34
70229;BME280;57617;51.988;5.854;2022-11-20T06:28:56;100771.97;;;0.86;63.98
70229;BME280;57617;51.988;5.854;2022-11-20T06:31:23;100779.56;;;0.97;64.62
70229;BME280;57617;51.988;5.854;2022-11-20T06:33:49;100779.88;;;1.02;64.38
70229;BME280;57617;51.988;5.854;2022-11-20T06:36:15;100778.22;;;1.01;64.16
70229;BME280;57617;51.988;5.854;2022-11-20T06:38:41;100780.22;;;0.99;63.35
70229;BME280;57617;51.988;5.854;2022-11-20T06:41:10;100780.41;;;0.98;64.22
70229;BME280;57617;51.988;5.854;2022-11-20T06:43:36;100786.28;;;0.93;64.26
70229;BME280;57617;51.988;5.854;2022-11-20T06:46:01;100791.34;;;0.88;63.93
70229;BME280;57617;51.988;5.854;2022-11-20T06:48:28;100792.81;;;0.91;64.79
70229;BME280;57617;51.988;5.854;2022-11-20T06:50:53;100782.69;;;0.86;64.35
70229;BME280;57617;51.988;5.854;2022-11-20T06:53:19;100789.13;;;0.92;63.94
70229;BME280;57617;51.988;5.854;2022-11-20T06:55:45;100794.84;;;0.89;63.77
70229;BME280;57617;51.988;5.854;2022-11-20T06:58:14;100794.00;;;0.88;64.45
70229;BME280;57617;51.988;5.854;2022-11-20T07:00:40;100761.47;;;0.62;64.29
70229;BME280;57617;51.988;5.854;2022-11-20T07:03:07;100792.00;;;0.90;64.11
70229;BME280;57617;51.988;5.854;2022-11-20T07:05:33;100787.84;;;0.88;63.78
70229;BME280;57617;51.988;5.854;2022-11-20T07:07:59;100790.16;;;0.91;64.06
70229;BME280;57617;51.988;5.854;2022-11-20T07:10:25;100800.66;;;0.92;63.96
70229;BME280;57617;51.988;5.854;2022-11-20T07:12:54;100776.47;;;0.86;64.68
70229;BME280;57617;51.988;5.854;2022-11-20T07:15:21;100792.31;;;0.95;64.28
70229;BME280;57617;51.988;5.854;2022-11-20T07:17:47;100783.91;;;0.98;64.67
70229;BME280;57617;51.988;5.854;2022-11-20T07:20:13;100781.53;;;1.03;64.83
70229;BME280;57617;51.988;5.854;2022-11-20T07:22:38;100781.19;;;1.06;64.47
70229;BME280;57617;51.988;5.854;2022-11-20T07:25:04;100782.28;;;1.12;64.52
70229;BME280;57617;51.988;5.854;2022-11-20T07:27:30;100767.41;;;1.09;64.21
70229;BME280;57617;51.988;5.854;2022-11-20T07:29:55;100772.72;;;1.17;64.01
70229;BME280;57617;51.988;5.854;2022-11-20T07:32:20;100766.16;;;1.20;64.51
70229;BME280;57617;51.988;5.854;2022-11-20T07:34:46;100765.81;;;1.23;64.89
70229;BME280;57617;51.988;5.854;2022-11-20T07:37:11;100768.13;;;1.26;64.02
70229;BME280;57617;51.988;5.854;2022-11-20T07:39:36;100765.91;;;1.29;64.23
70229;BME280;57617;51.988;5.854;2022-11-20T07:42:02;100755.88;;;1.31;64.82
70229;BME280;57617;51.988;5.854;2022-11-20T07:44:27;100743.47;;;1.30;64.74
70229;BME280;57617;51.988;5.854;2022-11-20T07:46:52;100741.75;;;1.37;64.35
70229;BME280;57617;51.988;5.854;2022-11-20T07:49:18;100746.81;;;1.47;63.84
70229;BME280;57617;51.988;5.854;2022-11-20T07:51:43;100746.09;;;1.53;64.15
70229;BME280;57617;51.988;5.854;2022-11-20T07:54:08;100744.06;;;1.55;64.10
70229;BME280;57617;51.988;5.854;2022-11-20T07:56:33;100744.63;;;1.65;64.60
70229;BME280;57617;51.988;5.854;2022-11-20T07:58:59;100751.16;;;1.77;63.98
70229;BME280;57617;51.988;5.854;2022-11-20T08:01:24;100742.56;;;1.81;64.40
70229;BME280;57617;51.988;5.854;2022-11-20T08:03:49;100749.22;;;1.85;64.98
70229;BME280;57617;51.988;5.854;2022-11-20T08:06:15;100730.09;;;1.74;64.44
70229;BME280;57617;51.988;5.854;2022-11-20T08:08:40;100758.25;;;1.99;65.06
70229;BME280;57617;51.988;5.854;2022-11-20T08:11:06;100749.66;;;2.03;64.79
70229;BME280;57617;51.988;5.854;2022-11-20T08:13:50;100766.53;;;2.18;64.79
70229;BME280;57617;51.988;5.854;2022-11-20T08:16:34;100772.78;;;2.25;64.59
70229;BME280;57617;51.988;5.854;2022-11-20T08:18:59;100771.41;;;2.29;64.05
70229;BME280;57617;51.988;5.854;2022-11-20T08:21:24;100766.84;;;2.30;64.62
70229;BME280;57617;51.988;5.854;2022-11-20T08:23:50;100768.06;;;2.27;64.52
70229;BME280;57617;51.988;5.854;2022-11-20T08:26:15;100768.91;;;2.28;64.81
70229;BME280;57617;51.988;5.854;2022-11-20T08:28:41;100769.75;;;2.28;64.73
70229;BME280;57617;51.988;5.854;2022-11-20T08:31:06;100762.97;;;2.32;64.27
70229;BME280;57617;51.988;5.854;2022-11-20T08:33:31;100759.56;;;2.38;64.20
70229;BME280;57617;51.988;5.854;2022-11-20T08:36:07;100757.41;;;2.48;64.08
70229;BME280;57617;51.988;5.854;2022-11-20T08:38:32;100752.69;;;2.50;64.46
70229;BME280;57617;51.988;5.854;2022-11-20T08:41:02;100755.00;;;2.53;64.58
70229;BME280;57617;51.988;5.854;2022-11-20T08:43:47;100753.31;;;2.52;64.57
70229;BME280;57617;51.988;5.854;2022-11-20T08:46:12;100740.31;;;2.49;64.18
70229;BME280;57617;51.988;5.854;2022-11-20T08:48:37;100754.41;;;2.58;64.67
70229;BME280;57617;51.988;5.854;2022-11-20T08:51:03;100745.22;;;2.67;64.71
70229;BME280;57617;51.988;5.854;2022-11-20T08:53:28;100744.63;;;2.71;64.63
70229;BME280;57617;51.988;5.854;2022-11-20T08:55:53;100728.56;;;2.71;64.17
70229;BME280;57617;51.988;5.854;2022-11-20T08:58:19;100736.47;;;2.79;64.75
70229;BME280;57617;51.988;5.854;2022-11-20T09:00:44;100750.13;;;2.84;64.39
70229;BME280;57617;51.988;5.854;2022-11-20T09:03:10;100740.66;;;2.88;64.05
70229;BME280;57617;51.988;5.854;2022-11-20T09:05:35;100740.66;;;2.88;64.41
70229;BME280;57617;51.988;5.854;2022-11-20T09:08:00;100742.13;;;2.91;64.19
70229;BME280;57617;51.988;5.854;2022-11-20T09:10:27;100732.50;;;2.96;64.56
70229;BME280;57617;51.988;5.854;2022-11-20T09:12:53;100730.84;;;2.95;64.24
70229;BME280;57617;51.988;5.854;2022-11-20T09:15:20;100724.44;;;2.96;64.81
70229;BME280;57617;51.988;5.854;2022-11-20T09:17:55;100719.69;;;2.98;64.42
70229;BME280;57617;51.988;5.854;2022-11-20T09:20:22;100710.63;;;2.99;64.05
70229;BME280;57617;51.988;5.854;2022-11-20T09:22:48;100713.91;;;2.95;63.81
70229;BME280;57617;51.988;5.854;2022-11-20T09:25:13;100712.84;;;2.89;64.18
70229;BME280;57617;51.988;5.854;2022-11-20T09:27:38;100719.19;;;2.88;64.72
70229;BME280;57617;51.988;5.854;2022-11-20T09:30:04;100716.75;;;2.87;64.50
70229;BME280;57617;51.988;5.854;2022-11-20T09:32:29;100708.44;;;2.82;64.75
70229;BME280;57617;51.988;5.854;2022-11-20T09:34:55;100708.44;;;2.82;64.13
70229;BME280;57617;51.988;5.854;2022-11-20T09:37:20;100704.75;;;2.83;65.09
70229;BME280;57617;51.988;5.854;2022-11-20T09:39:46;100706.81;;;2.87;64.46
70229;BME280;57617;51.988;5.854;2022-11-20T09:42:34;100700.50;;;2.95;64.60
70229;BME280;57617;51.988;5.854;2022-11-20T09:45:15;100700.56;;;3.01;64.86
70229;BME280;57617;51.988;5.854;2022-11-20T09:53:37;100705.75;;;3.09;64.62
70229;BME280;57617;51.988;5.854;2022-11-20T09:56:08;100698.59;;;3.16;65.12
70229;BME280;57617;51.988;5.854;2022-11-20T09:58:45;100700.63;;;3.14;65.13
70229;BME280;57617;51.988;5.854;2022-11-20T10:01:15;100692.81;;;3.13;64.92
70229;BME280;57617;51.988;5.854;2022-11-20T10:03:49;100693.06;;;3.24;64.53
70229;BME280;57617;51.988;5.854;2022-11-20T10:06:18;100681.94;;;3.27;65.26
70229;BME280;57617;51.988;5.854;2022-11-20T10:08:58;100690.06;;;3.34;64.59
70229;BME280;57617;51.988;5.854;2022-11-20T10:11:35;100686.53;;;3.33;64.39
70229;BME280;57617;51.988;5.854;2022-11-20T10:14:31;100680.78;;;3.36;65.55
70229;BME280;57617;51.988;5.854;2022-11-20T10:19:38;100675.03;;;3.46;64.97
70229;BME280;57617;51.988;5.854;2022-11-20T10:22:47;100667.66;;;3.54;65.26
70229;BME280;57617;51.988;5.854;2022-11-20T10:30:44;100645.16;;;3.62;65.40
70229;BME280;57617;51.988;5.854;2022-11-20T10:33:17;100651.19;;;3.70;64.85
70229;BME280;57617;51.988;5.854;2022-11-20T10:38:19;100641.13;;;3.85;65.40
70229;BME280;57617;51.988;5.854;2022-11-20T10:40:52;100642.19;;;3.91;64.45
70229;BME280;57617;51.988;5.854;2022-11-20T10:43:21;100644.22;;;3.89;64.57
70229;BME280;57617;51.988;5.854;2022-11-20T10:48:21;100637.63;;;3.91;65.29
70229;BME280;57617;51.988;5.854;2022-11-20T10:54:04;100609.97;;;3.97;65.79
70229;BME280;57617;51.988;5.854;2022-11-20T10:59:32;100613.09;;;4.01;66.04
70229;BME280;57617;51.988;5.854;2022-11-20T11:02:01;100610.59;;;3.99;65.43
70229;BME280;57617;51.988;5.854;2022-11-20T11:04:37;100607.50;;;3.96;65.76
70229;BME280;57617;51.988;5.854;2022-11-20T11:07:12;100595.09;;;3.95;65.89
70229;BME280;57617;51.988;5.854;2022-11-20T11:09:52;100596.75;;;4.09;66.21
70229;BME280;57617;51.988;5.854;2022-11-20T11:12:19;100601.53;;;4.13;65.31
70229;BME280;57617;51.988;5.854;2022-11-20T11:14:49;100586.66;;;4.17;65.49
70229;BME280;57617;51.988;5.854;2022-11-20T11:17:24;100576.13;;;4.22;65.40
70229;BME280;57617;51.988;5.854;2022-11-20T11:20:05;100583.56;;;4.27;65.73
70229;BME280;57617;51.988;5.854;2022-11-20T11:22:34;100573.22;;;4.30;65.85
70229;BME280;57617;51.988;5.854;2022-11-20T11:24:59;100560.81;;;4.36;65.38
70229;BME280;57617;51.988;5.854;2022-11-20T11:27:25;100558.53;;;4.39;66.00
70229;BME280;57617;51.988;5.854;2022-11-20T11:30:02;100545.31;;;4.38;65.70
70229;BME280;57617;51.988;5.854;2022-11-20T11:32:27;100550.50;;;4.46;65.59
70229;BME280;57617;51.988;5.854;2022-11-20T11:35:00;100550.69;;;4.51;66.03
70229;BME280;57617;51.988;5.854;2022-11-20T11:37:35;100543.44;;;4.51;66.21
70229;BME280;57617;51.988;5.854;2022-11-20T11:40:03;100536.81;;;4.54;65.61
70229;BME280;57617;51.988;5.854;2022-11-20T11:42:29;100535.97;;;4.60;65.96
70229;BME280;57617;51.988;5.854;2022-11-20T11:44:57;100538.25;;;4.63;66.15
70229;BME280;57617;51.988;5.854;2022-11-20T11:52:45;100506.59;;;4.65;66.55
70229;BME280;57617;51.988;5.854;2022-11-20T11:55:17;100504.31;;;4.68;66.56
70229;BME280;57617;51.988;5.854;2022-11-20T11:57:49;100501.00;;;4.66;66.83
70229;BME280;57617;51.988;5.854;2022-11-20T12:00:16;100501.00;;;4.66;66.39
70229;BME280;57617;51.988;5.854;2022-11-20T12:05:29;100488.78;;;4.70;67.03
70229;BME280;57617;51.988;5.854;2022-11-20T12:15:51;100489.00;;;4.69;67.12
70229;BME280;57617;51.988;5.854;2022-11-20T12:18:21;100479.69;;;4.71;66.85
70229;BME280;57617;51.988;5.854;2022-11-20T12:21:20;100475.13;;;4.72;67.81
70229;BME280;57617;51.988;5.854;2022-11-20T12:35:20;100446.56;;;4.77;68.22
70229;BME280;57617;51.988;5.854;2022-11-20T12:38:54;100441.16;;;4.77;68.41
70229;BME280;57617;51.988;5.854;2022-11-20T12:43:26;100439.91;;;4.80;67.96
70229;BME280;57617;51.988;5.854;2022-11-20T12:47:05;100437.41;;;4.85;68.86
70229;BME280;57617;51.988;5.854;2022-11-20T12:52:38;100429.34;;;4.85;68.13
70229;BME280;57617;51.988;5.854;2022-11-20T12:55:23;100419.63;;;4.90;68.69
70229;BME280;57617;51.988;5.854;2022-11-20T12:57:57;100416.47;;;4.93;68.41
70229;BME280;57617;51.988;5.854;2022-11-20T13:00:24;100422.28;;;4.97;68.10
70229;BME280;57617;51.988;5.854;2022-11-20T13:06:17;100413.16;;;4.98;68.98
70229;BME280;57617;51.988;5.854;2022-11-20T13:08:54;100415.66;;;4.99;68.69
70229;BME280;57617;51.988;5.854;2022-11-20T13:11:40;100416.47;;;4.93;68.71
70229;BME280;57617;51.988;5.854;2022-11-20T13:14:32;100409.66;;;4.91;69.72
70229;BME280;57617;51.988;5.854;2022-11-20T13:19:50;100378.22;;;4.85;69.66
70229;BME280;57617;51.988;5.854;2022-11-20T13:22:28;100378.88;;;4.87;69.91
70229;BME280;57617;51.988;5.854;2022-11-20T13:24:54;100359.78;;;4.88;69.43
70229;BME280;57617;51.988;5.854;2022-11-20T13:27:21;100351.72;;;4.88;69.50
70229;BME280;57617;51.988;5.854;2022-11-20T13:30:15;100337.66;;;4.86;70.73
70229;BME280;57617;51.988;5.854;2022-11-20T13:38:05;100332.88;;;4.88;70.19
70229;BME280;57617;51.988;5.854;2022-11-20T13:40:31;100331.03;;;4.89;69.81
70229;BME280;57617;51.988;5.854;2022-11-20T13:45:30;100317.38;;;4.90;70.93
70229;BME280;57617;51.988;5.854;2022-11-20T13:47:57;100312.78;;;4.91;70.63
70229;BME280;57617;51.988;5.854;2022-11-20T13:50:44;100287.63;;;4.79;71.42
70229;BME280;57617;51.988;5.854;2022-11-20T13:56:24;100298.09;;;4.93;71.67
70229;BME280;57617;51.988;5.854;2022-11-20T13:59:05;100289.66;;;4.83;71.44
70229;BME280;57617;51.988;5.854;2022-11-20T14:01:36;100299.94;;;4.99;70.57
70229;BME280;57617;51.988;5.854;2022-11-20T14:04:08;100291.03;;;4.99;71.56
70229;BME280;57617;51.988;5.854;2022-11-20T14:06:44;100276.31;;;5.01;71.97
70229;BME280;57617;51.988;5.854;2022-11-20T14:09:29;100266.22;;;4.97;71.91
70229;BME280;57617;51.988;5.854;2022-11-20T14:11:56;100254.41;;;4.98;71.55
70229;BME280;57617;51.988;5.854;2022-11-20T14:14:26;100263.53;;;4.97;71.39
70229;BME280;57617;51.988;5.854;2022-11-20T14:17:04;100257.31;;;4.96;71.71
70229;BME280;57617;51.988;5.854;2022-11-20T14:19:30;100263.09;;;4.93;71.67
70229;BME280;57617;51.988;5.854;2022-11-20T14:22:28;100259.16;;;4.96;72.90
70229;BME280;57617;51.988;5.854;2022-11-20T14:27:36;100244.91;;;4.95;71.95
70229;BME280;57617;51.988;5.854;2022-11-20T14:30:03;100231.06;;;4.92;71.44